Margrethe Maersk — OZBY2 — position and weather

sailwx.info

Track history (hours):
 
Tides and Currents Weather Stations Pressure Air Temp Water Temp Dewpoint Dewpoint Depression Visibility Wind Speed Wind Dir Waves Ship Positions

Margrethe Maersk

Last reported at 2018-Jun-16 12:35 UTC. Time now 2018-Jun-21 14:13 UTC.
Position N 37°12' E 003°41'.

Length 367 m; draft 14.7 m.

Type: Ship (hazmat cat A). MMSI: 220593000.

Date/timePositionNaut miles runAvg speedWind from/ knotsBaromVisibWave heightAir tempDewpointWater temp
2018-Jun-16 12:35N 37°12' E 003°41'218.0
2018-Jun-16 12:28N 37°12' E 003°38'3517.2
2018-Jun-16 10:25N 37°09' E 002°54'718.0
2018-Jun-16 10:00N 37°08' E 002°45'1019.0
2018-Jun-16 09:30N 37°06' E 002°33'1019.5
2018-Jun-16 09:00N 37°05' E 002°21'1018.9
2018-Jun-16 08:30N 37°03' E 002°09'1018.7
2018-Jun-16 07:59N 37°00' E 001°58'918.6
2018-Jun-16 07:30N 36°59' E 001°47'918.7
2018-Jun-16 07:00N 36°57' E 001°35'918.7
2018-Jun-16 06:30N 36°55' E 001°24'918.7
2018-Jun-16 06:00N 36°53' E 001°12'918.6
2018-Jun-16 05:30N 36°51' E 001°01'918.6
2018-Jun-16 05:00N 36°50' E 000°49'918.6
2018-Jun-16 04:30N 36°48' E 000°38'918.3
2018-Jun-16 04:00N 36°46' E 000°27'918.0
2018-Jun-16 03:30N 36°44' E 000°16'917.9
2018-Jun-16 03:00N 36°43' E 000°05'917.9
2018-Jun-16 02:30N 36°40' W 000°06'917.9
2018-Jun-16 01:59N 36°38' W 000°17'918.0
2018-Jun-16 01:30N 36°37' W 000°28'918.0
2018-Jun-16 01:00N 36°36' W 000°39'918.2
2018-Jun-16 00:30N 36°35' W 000°50'918.2
2018-Jun-15 23:59N 36°33' W 001°02'2018.4
2018-Jun-15 22:54N 36°29' W 001°26'818.7
2018-Jun-15 22:28N 36°27' W 001°36'18019.1
2018-Jun-15 13:01N 35°60' W 005°17'019.5
2018-Jun-15 13:00N 35°60' W 005°17'19417.5
2018-Jun-15 01:55N 36°12' W 009°17'717.4
2018-Jun-15 01:30N 36°14' W 009°26'5717.0
2018-Jun-14 22:10N 36°35' W 010°31'317.2
2018-Jun-14 21:59N 36°36' W 010°35'817.3
2018-Jun-14 21:30N 36°39' W 010°45'1317.4
2018-Jun-14 20:44N 36°44' W 011°00'817.5
2018-Jun-14 20:17N 36°46' W 011°09'517.7
2018-Jun-14 20:00N 36°48' W 011°15'5717.3
2018-Jun-14 16:41N 37°08' W 012°23'1817.5
2018-Jun-14 15:39N 37°15' W 012°44'317.7
2018-Jun-14 15:29N 37°16' W 012°47'  
2018-Jun-08 11:25N 40°24' W 071°01'718.2
2018-Jun-08 11:00N 40°24' W 071°11'1518.0
2018-Jun-08 10:12N 40°24' W 071°30'2118.3
2018-Jun-08 09:03N 40°23' W 071°58'118.4
2018-Jun-08 09:00N 40°23' W 071°59'1518.4
2018-Jun-08 08:10N 40°23' W 072°19'318.3
2018-Jun-08 08:00N 40°23' W 072°23'918.2
2018-Jun-08 07:29N 40°23' W 072°35'918.3
2018-Jun-08 07:00N 40°22' W 072°47'918.2
2018-Jun-08 06:30N 40°22' W 072°59'917.9
2018-Jun-08 06:00N 40°23' W 073°11'918.0
2018-Jun-08 05:30N 40°24' W 073°22'917.6
2018-Jun-08 05:00N 40°25' W 073°34'1216.7
2018-Jun-08 04:17N 40°27' W 073°50'511.5
2018-Jun-08 03:51N 40°29' W 073°55'512.8
2018-Jun-08 03:29N 40°31' W 074°00'510.9
2018-Jun-08 03:01N 40°36' W 074°03'3 6.5
2018-Jun-08 02:31N 40°39' W 074°05'3 5.3
2018-Jun-08 02:00N 40°39' W 074°09'2 3.4
2018-Jun-08 01:27N 40°40' W 074°08'  
Track history (hours):
 
Tides and Currents Weather Stations Pressure Air Temp Water Temp Dewpoint Dewpoint Depression Visibility Wind Speed Wind Dir Waves Ship Positions

Margrethe Maersk

Last reported at 2018-Jun-16 12:35 UTC. Time now 2018-Jun-21 14:13 UTC.
Position N 37°12' E 003°41'.

Length 367 m; draft 14.7 m.

Type: Ship (hazmat cat A). MMSI: 220593000.

Date/timePositionNaut miles runAvg speedWind from/ knotsBaromVisibWave heightAir tempDewpointWater temp
2018-Jun-16 12:35N 37°12' E 003°41'218.0
2018-Jun-16 12:28N 37°12' E 003°38'3517.2
2018-Jun-16 10:25N 37°09' E 002°54'718.0
2018-Jun-16 10:00N 37°08' E 002°45'1019.0
2018-Jun-16 09:30N 37°06' E 002°33'1019.5
2018-Jun-16 09:00N 37°05' E 002°21'1018.9
2018-Jun-16 08:30N 37°03' E 002°09'1018.7
2018-Jun-16 07:59N 37°00' E 001°58'918.6
2018-Jun-16 07:30N 36°59' E 001°47'918.7
2018-Jun-16 07:00N 36°57' E 001°35'918.7
2018-Jun-16 06:30N 36°55' E 001°24'918.7
2018-Jun-16 06:00N 36°53' E 001°12'918.6
2018-Jun-16 05:30N 36°51' E 001°01'918.6
2018-Jun-16 05:00N 36°50' E 000°49'918.6
2018-Jun-16 04:30N 36°48' E 000°38'918.3
2018-Jun-16 04:00N 36°46' E 000°27'918.0
2018-Jun-16 03:30N 36°44' E 000°16'917.9
2018-Jun-16 03:00N 36°43' E 000°05'917.9
2018-Jun-16 02:30N 36°40' W 000°06'917.9
2018-Jun-16 01:59N 36°38' W 000°17'918.0
2018-Jun-16 01:30N 36°37' W 000°28'918.0
2018-Jun-16 01:00N 36°36' W 000°39'918.2
2018-Jun-16 00:30N 36°35' W 000°50'918.2
2018-Jun-15 23:59N 36°33' W 001°02'2018.4
2018-Jun-15 22:54N 36°29' W 001°26'818.7
2018-Jun-15 22:28N 36°27' W 001°36'18019.1
2018-Jun-15 13:01N 35°60' W 005°17'019.5
2018-Jun-15 13:00N 35°60' W 005°17'19417.5
2018-Jun-15 01:55N 36°12' W 009°17'717.4
2018-Jun-15 01:30N 36°14' W 009°26'5717.0
2018-Jun-14 22:10N 36°35' W 010°31'317.2
2018-Jun-14 21:59N 36°36' W 010°35'817.3
2018-Jun-14 21:30N 36°39' W 010°45'1317.4
2018-Jun-14 20:44N 36°44' W 011°00'817.5
2018-Jun-14 20:17N 36°46' W 011°09'517.7
2018-Jun-14 20:00N 36°48' W 011°15'5717.3
2018-Jun-14 16:41N 37°08' W 012°23'1817.5
2018-Jun-14 15:39N 37°15' W 012°44'317.7
2018-Jun-14 15:29N 37°16' W 012°47'  
2018-Jun-08 11:25N 40°24' W 071°01'718.2
2018-Jun-08 11:00N 40°24' W 071°11'1518.0
2018-Jun-08 10:12N 40°24' W 071°30'2118.3
2018-Jun-08 09:03N 40°23' W 071°58'118.4
2018-Jun-08 09:00N 40°23' W 071°59'1518.4
2018-Jun-08 08:10N 40°23' W 072°19'318.3
2018-Jun-08 08:00N 40°23' W 072°23'918.2
2018-Jun-08 07:29N 40°23' W 072°35'918.3
2018-Jun-08 07:00N 40°22' W 072°47'918.2
2018-Jun-08 06:30N 40°22' W 072°59'917.9
2018-Jun-08 06:00N 40°23' W 073°11'918.0
2018-Jun-08 05:30N 40°24' W 073°22'917.6
2018-Jun-08 05:00N 40°25' W 073°34'1216.7
2018-Jun-08 04:17N 40°27' W 073°50'511.5
2018-Jun-08 03:51N 40°29' W 073°55'512.8
2018-Jun-08 03:29N 40°31' W 074°00'510.9
2018-Jun-08 03:01N 40°36' W 074°03'3 6.5
2018-Jun-08 02:31N 40°39' W 074°05'3 5.3
2018-Jun-08 02:00N 40°39' W 074°09'2 3.4
2018-Jun-08 01:27N 40°40' W 074°08'  

Dump ship's entire track history